createdAt,value
2023-05-03T00:00:13.866Z,4.40
2023-05-03T00:03:05.017Z,4.90
2023-05-03T00:05:34.552Z,4.40
2023-05-03T00:08:04.845Z,4.00
2023-05-03T00:10:34.148Z,4.60
2023-05-03T00:13:03.559Z,5.30
2023-05-03T00:15:32.852Z,5.50
2023-05-03T00:18:02.092Z,5.00
2023-05-03T00:20:31.555Z,5.90
2023-05-03T00:23:02.298Z,4.90
2023-05-03T00:25:31.487Z,5.30
2023-05-03T00:28:01.029Z,5.00
2023-05-03T00:30:30.485Z,6.70
2023-05-03T00:32:59.931Z,6.60
2023-05-03T00:35:29.451Z,6.20
2023-05-03T00:37:59.630Z,5.70
2023-05-03T00:40:29.447Z,5.80
2023-05-03T00:42:58.645Z,6.90
2023-05-03T00:45:29.682Z,6.10
2023-05-03T00:47:59.386Z,5.80
2023-05-03T00:50:30.066Z,5.90
2023-05-03T00:52:59.431Z,6.60
2023-05-03T00:55:31.810Z,6.40
2023-05-03T00:58:01.213Z,5.60
2023-05-03T01:00:30.811Z,6.20
2023-05-03T01:03:00.227Z,7.40
2023-05-03T01:05:44.480Z,6.50
2023-05-03T01:08:28.203Z,6.60
2023-05-03T01:11:27.713Z,6.90
2023-05-03T01:14:28.249Z,6.10
2023-05-03T01:17:05.736Z,7.00
2023-05-03T01:19:51.853Z,6.80
2023-05-03T01:22:50.831Z,7.30
2023-05-03T01:25:20.335Z,6.70
2023-05-03T01:27:50.863Z,6.90
2023-05-03T01:30:23.840Z,6.00
2023-05-03T01:33:32.684Z,6.50
2023-05-03T01:36:27.169Z,5.70
2023-05-03T01:38:56.503Z,7.10
2023-05-03T01:41:28.153Z,7.10
2023-05-03T01:43:57.688Z,7.20
2023-05-03T01:46:27.193Z,6.20
2023-05-03T01:48:56.645Z,6.60
2023-05-03T01:51:26.156Z,7.10
2023-05-03T01:53:55.231Z,7.70
2023-05-03T01:56:24.548Z,8.00
2023-05-03T01:58:53.849Z,7.10
2023-05-03T02:01:23.207Z,7.50
2023-05-03T02:03:52.577Z,8.00
2023-05-03T02:06:21.773Z,7.40
2023-05-03T02:08:53.010Z,6.90
2023-05-03T02:11:22.424Z,6.20
2023-05-03T02:13:51.714Z,6.80
2023-05-03T02:16:21.758Z,7.30
2023-05-03T02:18:52.151Z,6.60
2023-05-03T02:21:21.460Z,6.60
2023-05-03T02:23:50.746Z,7.80
2023-05-03T02:26:21.172Z,6.90
2023-05-03T02:28:50.589Z,6.20
2023-05-03T02:31:20.052Z,6.90
2023-05-03T02:33:49.489Z,7.10
2023-05-03T02:36:18.991Z,7.10
2023-05-03T02:38:48.904Z,7.90
2023-05-03T02:41:18.319Z,7.10
2023-05-03T02:43:48.838Z,8.10
2023-05-03T02:46:18.381Z,7.70
2023-05-03T02:48:47.647Z,8.80
2023-05-03T02:51:16.946Z,7.50
2023-05-03T02:53:46.346Z,8.90
2023-05-03T02:56:15.759Z,7.00
2023-05-03T02:58:44.931Z,6.60
2023-05-03T03:01:14.452Z,9.00
2023-05-03T03:03:44.364Z,6.70
2023-05-03T03:06:13.996Z,7.20
2023-05-03T03:08:43.280Z,7.40
2023-05-03T03:11:13.308Z,9.90
2023-05-03T03:13:42.807Z,7.00
2023-05-03T03:16:13.703Z,7.50
2023-05-03T03:18:43.046Z,8.80
2023-05-03T03:21:12.857Z,7.60
2023-05-03T03:23:42.470Z,7.60
2023-05-03T03:26:12.920Z,8.60
2023-05-03T03:28:42.302Z,9.70
2023-05-03T03:31:12.142Z,9.00
2023-05-03T03:33:42.744Z,8.70
2023-05-03T03:36:14.289Z,8.40
2023-05-03T03:38:43.807Z,8.50
2023-05-03T03:41:13.817Z,7.70
2023-05-03T03:43:43.575Z,7.20
2023-05-03T03:46:15.420Z,7.70
2023-05-03T03:48:45.512Z,7.20
2023-05-03T03:51:15.212Z,8.40
2023-05-03T03:53:46.817Z,7.60
2023-05-03T03:56:16.703Z,9.50
2023-05-03T03:58:49.040Z,8.80
2023-05-03T04:01:18.874Z,8.20
2023-05-03T04:03:48.537Z,10.40
2023-05-03T04:06:18.218Z,9.80
2023-05-03T04:08:48.723Z,8.60
2023-05-03T04:11:19.146Z,8.80
2023-05-03T04:13:52.869Z,8.70
2023-05-03T04:16:22.680Z,8.50
2023-05-03T04:18:52.613Z,7.30
2023-05-03T04:21:22.132Z,8.50
2023-05-03T04:23:52.358Z,8.90
2023-05-03T04:26:31.878Z,8.30
2023-05-03T04:29:13.130Z,8.60
2023-05-03T04:31:43.778Z,8.00
2023-05-03T04:34:16.119Z,8.40
2023-05-03T04:36:47.583Z,8.60
2023-05-03T04:39:17.094Z,9.40
2023-05-03T04:41:47.695Z,9.90
2023-05-03T04:44:17.753Z,9.20
2023-05-03T04:46:48.780Z,9.00
2023-05-03T04:49:19.822Z,10.80
2023-05-03T04:51:49.017Z,9.70
2023-05-03T04:54:18.730Z,9.00
2023-05-03T04:56:48.339Z,10.60
2023-05-03T04:59:20.101Z,10.30
2023-05-03T05:01:50.087Z,9.30
2023-05-03T05:04:19.726Z,10.70
2023-05-03T05:06:54.533Z,9.00
2023-05-03T05:09:29.308Z,8.00
2023-05-03T05:12:00.624Z,9.20
2023-05-03T05:14:35.276Z,9.00
2023-05-03T05:17:05.453Z,9.90
2023-05-03T05:19:34.782Z,9.20
2023-05-03T05:22:05.814Z,7.20
2023-05-03T05:24:42.184Z,8.30
2023-05-03T05:27:13.016Z,8.60
2023-05-03T05:29:43.566Z,7.20
2023-05-03T05:32:13.163Z,6.50
2023-05-03T05:34:45.890Z,7.70
2023-05-03T05:37:18.211Z,7.00
2023-05-03T05:39:47.921Z,6.80
2023-05-03T05:42:18.551Z,6.30
2023-05-03T05:44:48.164Z,6.60
2023-05-03T05:47:19.451Z,7.90
2023-05-03T05:49:49.032Z,7.00
2023-05-03T05:52:18.457Z,7.30
2023-05-03T05:54:48.131Z,6.90
2023-05-03T05:57:18.659Z,6.60
2023-05-03T05:59:47.836Z,6.70
2023-05-03T06:02:18.044Z,6.40
2023-05-03T06:04:49.895Z,7.00
2023-05-03T06:07:19.445Z,6.70
2023-05-03T06:09:48.849Z,6.40
2023-05-03T06:12:18.258Z,7.00
2023-05-03T06:15:01.332Z,6.60
2023-05-03T06:17:36.336Z,6.60
2023-05-03T06:20:07.327Z,6.50
2023-05-03T06:22:36.784Z,7.10
2023-05-03T06:25:08.993Z,6.30
2023-05-03T06:27:38.840Z,6.60
2023-05-03T06:30:10.645Z,5.70
2023-05-03T06:32:42.553Z,5.70
2023-05-03T06:35:14.017Z,5.70
2023-05-03T06:37:43.872Z,6.10
2023-05-03T06:40:13.841Z,6.40
2023-05-03T06:42:43.403Z,5.60
2023-05-03T06:45:17.243Z,6.60
2023-05-03T06:47:46.577Z,6.50
2023-05-03T06:50:16.267Z,6.70
2023-05-03T06:52:45.881Z,5.90
2023-05-03T06:55:15.277Z,5.90
2023-05-03T06:57:48.061Z,7.00
2023-05-03T07:00:18.177Z,8.40
2023-05-03T07:02:48.088Z,6.10
2023-05-03T07:05:17.913Z,6.60
2023-05-03T07:07:47.103Z,12.30
2023-05-03T07:10:16.520Z,10.50
2023-05-03T07:12:46.021Z,9.10
2023-05-03T07:15:15.754Z,7.40
2023-05-03T07:17:44.941Z,9.60
2023-05-03T07:20:14.737Z,31.50
2023-05-03T07:22:44.852Z,28.20
2023-05-03T07:25:16.574Z,6.50
2023-05-03T07:27:46.937Z,5.90
2023-05-03T07:30:16.341Z,4.90
2023-05-03T07:32:45.830Z,5.30
2023-05-03T07:35:15.786Z,6.40
2023-05-03T07:37:45.370Z,6.70
2023-05-03T07:40:15.181Z,9.80
2023-05-03T07:42:44.483Z,5.70
2023-05-03T07:45:13.884Z,6.20
2023-05-03T07:47:43.318Z,8.40
2023-05-03T07:50:14.214Z,9.70
2023-05-03T07:52:43.762Z,8.20
2023-05-03T07:55:13.032Z,11.90
2023-05-03T07:57:42.849Z,5.40
2023-05-03T08:00:15.146Z,5.60
2023-05-03T08:02:45.365Z,5.60
2023-05-03T08:05:15.143Z,5.90
2023-05-03T08:07:46.092Z,6.50
2023-05-03T08:10:16.003Z,5.60
2023-05-03T08:12:46.028Z,5.10
2023-05-03T08:15:15.544Z,15.20
2023-05-03T08:17:46.716Z,6.50
2023-05-03T08:20:16.934Z,4.50
2023-05-03T08:22:46.745Z,4.00
2023-05-03T08:25:17.959Z,5.10
2023-05-03T08:27:47.572Z,4.90
2023-05-03T08:30:16.964Z,5.20
2023-05-03T08:32:46.513Z,4.90
2023-05-03T08:35:16.083Z,4.50
2023-05-03T08:37:45.691Z,4.50
2023-05-03T08:40:16.933Z,4.30
2023-05-03T08:42:46.786Z,3.90
2023-05-03T08:45:17.402Z,4.40
2023-05-03T08:47:46.610Z,4.30
2023-05-03T08:50:16.414Z,5.80
2023-05-03T08:52:46.712Z,4.50
2023-05-03T08:55:17.147Z,4.00
2023-05-03T08:57:46.661Z,4.00
2023-05-03T09:00:18.733Z,4.40
2023-05-03T09:02:50.351Z,4.40
2023-05-03T09:05:19.664Z,6.30
2023-05-03T09:08:11.545Z,4.00
2023-05-03T09:10:43.270Z,3.60
2023-05-03T09:13:12.785Z,3.60
2023-05-03T09:15:44.325Z,3.70
2023-05-03T09:18:19.997Z,4.60
2023-05-03T09:20:53.258Z,3.70
2023-05-03T09:23:31.883Z,3.40
2023-05-03T09:26:01.487Z,3.40
2023-05-03T09:28:42.070Z,3.50
2023-05-03T09:31:12.831Z,3.60
2023-05-03T09:33:43.426Z,3.90
2023-05-03T09:36:13.093Z,3.80
2023-05-03T09:38:43.006Z,3.00
2023-05-03T09:41:12.992Z,3.40
2023-05-03T09:44:03.169Z,3.10
2023-05-03T09:46:33.473Z,3.30
2023-05-03T09:49:04.181Z,3.80
2023-05-03T09:51:34.430Z,3.40
2023-05-03T09:54:04.849Z,3.50
2023-05-03T09:56:34.281Z,3.80
2023-05-03T09:59:04.187Z,3.30
2023-05-03T10:01:36.191Z,13.50
2023-05-03T10:04:07.324Z,4.90
2023-05-03T10:06:44.217Z,8.30
2023-05-03T10:09:24.520Z,5.50
2023-05-03T10:11:55.201Z,4.00
2023-05-03T10:14:25.272Z,37.80
2023-05-03T10:17:03.065Z,45.20
2023-05-03T10:19:43.843Z,27.60
2023-05-03T10:22:13.245Z,4.50
2023-05-03T10:25:01.821Z,4.20
2023-05-03T10:27:52.795Z,4.30
2023-05-03T10:30:35.004Z,4.00
2023-05-03T10:33:14.392Z,3.80
2023-05-03T10:35:55.112Z,4.10
2023-05-03T10:38:26.974Z,4.00
2023-05-03T10:40:57.234Z,3.80
2023-05-03T10:43:32.872Z,3.90
2023-05-03T10:46:07.284Z,3.80
2023-05-03T10:48:36.691Z,4.40
2023-05-03T10:51:29.220Z,3.70
2023-05-03T10:53:58.624Z,14.90
2023-05-03T10:56:28.324Z,3.90
2023-05-03T10:58:59.214Z,3.30
2023-05-03T11:01:30.216Z,3.20
2023-05-03T11:04:12.834Z,3.00
2023-05-03T11:06:42.493Z,3.10
2023-05-03T11:09:14.983Z,3.10
2023-05-03T11:11:44.508Z,2.40
2023-05-03T11:14:14.113Z,3.30
2023-05-03T11:16:50.924Z,3.40
2023-05-03T11:19:21.123Z,3.80
2023-05-03T11:21:51.336Z,5.40
2023-05-03T11:24:20.835Z,3.10
2023-05-03T11:26:50.652Z,3.10
2023-05-03T11:29:21.692Z,3.00
2023-05-03T11:31:52.708Z,2.50
2023-05-03T11:34:22.133Z,2.50
2023-05-03T11:36:51.437Z,1.90
2023-05-03T11:39:21.069Z,2.20
2023-05-03T11:42:08.470Z,2.90
2023-05-03T11:44:38.097Z,2.30
2023-05-03T11:47:07.978Z,3.10
2023-05-03T11:49:37.941Z,3.10
2023-05-03T11:52:08.067Z,3.40
2023-05-03T11:54:37.747Z,2.60
2023-05-03T11:57:14.855Z,3.20
2023-05-03T11:59:45.050Z,2.70
2023-05-03T12:02:16.170Z,3.70
2023-05-03T12:04:46.576Z,2.50
2023-05-03T12:07:19.300Z,2.70
2023-05-03T12:10:05.754Z,3.10
2023-05-03T12:12:43.265Z,3.40
2023-05-03T12:15:30.024Z,3.30
2023-05-03T12:18:04.212Z,3.30
2023-05-03T12:21:28.506Z,2.90
2023-05-03T12:23:27.334Z,2.70
2023-05-03T12:26:00.884Z,2.70
2023-05-03T12:28:30.413Z,2.60
2023-05-03T12:31:00.346Z,3.30
2023-05-03T12:33:31.702Z,2.80
2023-05-03T12:36:04.404Z,3.00
2023-05-03T12:38:37.556Z,3.60
2023-05-03T12:41:09.113Z,3.10
2023-05-03T12:43:38.925Z,2.80
2023-05-03T12:46:32.461Z,3.10
2023-05-03T12:49:00.333Z,3.10
2023-05-03T12:51:33.323Z,4.20
2023-05-03T12:54:10.133Z,3.40
2023-05-03T12:56:41.370Z,3.10
2023-05-03T12:59:31.796Z,3.00
2023-05-03T13:04:57.105Z,3.00
2023-05-03T13:07:30.184Z,2.20
2023-05-03T13:12:34.315Z,2.10
2023-05-03T13:15:04.834Z,2.40
2023-05-03T13:17:34.718Z,1.90
2023-05-03T13:20:07.241Z,1.90
2023-05-03T13:22:36.637Z,2.20
2023-05-03T13:25:07.366Z,1.70
2023-05-03T13:27:36.761Z,1.90
2023-05-03T13:30:08.792Z,1.80
2023-05-03T13:32:38.371Z,1.90
2023-05-03T13:35:09.790Z,2.20
2023-05-03T13:37:39.152Z,1.80
2023-05-03T13:40:10.222Z,1.60
2023-05-03T13:42:39.457Z,1.90
2023-05-03T13:45:10.318Z,2.10
2023-05-03T13:48:05.286Z,1.90
2023-05-03T13:50:31.804Z,1.50
2023-05-03T13:53:01.671Z,1.50
2023-05-03T13:55:31.032Z,2.40
2023-05-03T13:58:00.941Z,1.90
2023-05-03T14:00:32.319Z,1.40
2023-05-03T14:03:02.560Z,1.60
2023-05-03T14:05:33.020Z,2.00
2023-05-03T14:08:02.640Z,1.50
2023-05-03T14:10:35.754Z,1.00
2023-05-03T14:13:05.380Z,1.00
2023-05-03T14:15:43.885Z,1.20
2023-05-03T14:18:13.499Z,2.10
2023-05-03T14:20:43.403Z,2.20
2023-05-03T14:23:13.299Z,1.80
2023-05-03T14:25:43.662Z,1.10
2023-05-03T14:28:13.227Z,3.50
2023-05-03T14:30:42.690Z,1.50
2023-05-03T14:33:12.386Z,1.80
2023-05-03T14:35:42.083Z,1.20
2023-05-03T14:38:11.469Z,1.30
2023-05-03T14:40:44.857Z,1.10
2023-05-03T14:43:15.994Z,1.50
2023-05-03T14:45:45.533Z,2.10
2023-05-03T14:48:16.033Z,1.80
2023-05-03T14:50:50.426Z,2.00
2023-05-03T14:53:22.731Z,1.60
2023-05-03T14:55:55.050Z,1.90
2023-05-03T14:58:24.531Z,1.50
2023-05-03T15:00:53.884Z,3.20
2023-05-03T15:03:23.430Z,3.90
2023-05-03T15:05:53.631Z,5.60
2023-05-03T15:08:23.241Z,2.50
2023-05-03T15:10:52.743Z,1.70
2023-05-03T15:13:22.376Z,1.50
2023-05-03T15:15:52.318Z,1.50
2023-05-03T15:18:22.298Z,1.80
2023-05-03T15:20:51.803Z,1.40
2023-05-03T15:23:21.541Z,0.90
2023-05-03T15:25:51.838Z,1.60
2023-05-03T15:28:21.643Z,1.70
2023-05-03T15:30:51.399Z,2.10
2023-05-03T15:33:21.442Z,2.10
2023-05-03T15:35:50.751Z,2.10
2023-05-03T15:38:20.276Z,2.00
2023-05-03T15:40:49.782Z,2.70
2023-05-03T15:43:19.590Z,1.80
2023-05-03T15:45:49.249Z,1.60
2023-05-03T15:48:19.055Z,1.20
2023-05-03T15:50:48.621Z,1.70
2023-05-03T15:53:19.045Z,1.70
2023-05-03T15:55:49.064Z,1.70
2023-05-03T15:58:19.309Z,1.50
2023-05-03T16:00:48.489Z,2.20
2023-05-03T16:03:18.509Z,1.60
2023-05-03T16:05:48.729Z,2.20
2023-05-03T16:08:20.147Z,2.60
2023-05-03T16:10:49.585Z,1.90
2023-05-03T16:13:19.194Z,2.10
2023-05-03T16:15:52.701Z,1.50
2023-05-03T16:18:24.488Z,2.20
2023-05-03T16:20:54.299Z,1.50
2023-05-03T16:23:23.565Z,1.40
2023-05-03T16:25:52.871Z,2.70
2023-05-03T16:28:22.175Z,2.20
2023-05-03T16:30:51.977Z,2.30
2023-05-03T16:33:22.511Z,2.50
2023-05-03T16:35:52.731Z,3.00
2023-05-03T16:38:22.152Z,2.10
2023-05-03T16:40:51.844Z,2.90
2023-05-03T16:43:21.255Z,2.60
2023-05-03T16:46:01.241Z,2.10
2023-05-03T16:48:31.866Z,3.30
2023-05-03T16:51:01.345Z,5.00
2023-05-03T16:53:31.485Z,4.60
2023-05-03T16:56:01.882Z,4.00
2023-05-03T16:58:31.180Z,3.00
2023-05-03T17:01:00.549Z,6.40
2023-05-03T17:03:30.010Z,8.80
2023-05-03T17:06:01.401Z,5.20
2023-05-03T17:08:33.092Z,3.30
2023-05-03T17:11:09.202Z,2.10
2023-05-03T17:13:38.662Z,3.20
2023-05-03T17:16:15.316Z,4.10
2023-05-03T17:18:44.651Z,5.30
2023-05-03T17:21:14.909Z,4.40
2023-05-03T17:23:46.082Z,2.90
2023-05-03T17:26:15.704Z,2.50
2023-05-03T17:28:45.209Z,3.00
2023-05-03T17:31:14.523Z,3.50
2023-05-03T17:33:43.917Z,2.70
2023-05-03T17:36:13.111Z,4.30
2023-05-03T17:38:43.863Z,2.70
2023-05-03T17:41:14.073Z,3.20
2023-05-03T17:43:43.881Z,3.50
2023-05-03T17:46:14.614Z,3.40
2023-05-03T17:48:44.509Z,3.20
2023-05-03T17:51:13.976Z,3.60
2023-05-03T17:53:43.749Z,4.80
2023-05-03T17:56:15.236Z,3.40
2023-05-03T17:58:45.340Z,2.70
2023-05-03T18:01:15.977Z,2.70
2023-05-03T18:03:45.737Z,3.20
2023-05-03T18:06:16.129Z,4.00
2023-05-03T18:08:45.504Z,5.80
2023-05-03T18:11:15.015Z,2.90
2023-05-03T18:13:45.122Z,2.90
2023-05-03T18:16:14.684Z,2.50
2023-05-03T18:18:44.332Z,3.00
2023-05-03T18:21:13.534Z,2.60
2023-05-03T18:23:44.328Z,3.00
2023-05-03T18:26:15.205Z,2.60
2023-05-03T18:28:46.974Z,3.20
2023-05-03T18:31:16.365Z,2.60
2023-05-03T18:33:45.979Z,5.90
2023-05-03T18:36:15.786Z,3.20
2023-05-03T18:38:47.247Z,3.80
2023-05-03T18:41:17.777Z,3.50
2023-05-03T18:43:47.313Z,2.40
2023-05-03T18:46:21.717Z,3.30
2023-05-03T18:48:53.557Z,2.90
2023-05-03T18:51:23.372Z,2.80
2023-05-03T18:53:52.776Z,3.30
2023-05-03T18:56:22.583Z,3.80
2023-05-03T18:58:52.497Z,3.40
2023-05-03T19:01:24.751Z,6.20
2023-05-03T19:03:55.174Z,6.90
2023-05-03T19:06:24.605Z,4.40
2023-05-03T19:08:54.746Z,4.90
2023-05-03T19:11:25.199Z,4.50
2023-05-03T19:13:54.671Z,4.60
2023-05-03T19:16:24.200Z,3.60
2023-05-03T19:18:56.054Z,4.00
2023-05-03T19:21:25.329Z,4.70
2023-05-03T19:23:54.456Z,3.40
2023-05-03T19:26:24.131Z,3.90
2023-05-03T19:28:53.326Z,4.50
2023-05-03T19:31:22.625Z,4.40
2023-05-03T19:33:52.955Z,5.20
2023-05-03T19:36:22.757Z,4.00
2023-05-03T19:38:52.273Z,4.40
2023-05-03T19:41:21.640Z,3.50
2023-05-03T19:43:55.119Z,4.20
2023-05-03T19:46:24.466Z,3.80
2023-05-03T19:48:53.778Z,6.50
2023-05-03T19:51:23.484Z,4.30
2023-05-03T19:53:53.912Z,4.30
2023-05-03T19:56:25.280Z,4.30
2023-05-03T19:58:55.593Z,5.20
2023-05-03T20:01:24.819Z,4.00
2023-05-03T20:03:55.294Z,5.50
2023-05-03T20:06:24.719Z,4.30
2023-05-03T20:08:53.912Z,4.80
2023-05-03T20:11:23.333Z,4.80
2023-05-03T20:13:52.606Z,4.90
2023-05-03T20:16:22.371Z,4.70
2023-05-03T20:18:53.575Z,5.30
2023-05-03T20:21:22.983Z,4.30
2023-05-03T20:23:52.488Z,4.50
2023-05-03T20:26:22.100Z,4.50
2023-05-03T20:28:51.721Z,4.30
2023-05-03T20:31:21.666Z,4.80
2023-05-03T20:33:51.038Z,3.80
2023-05-03T20:36:20.321Z,5.10
2023-05-03T20:38:49.622Z,7.10
2023-05-03T20:41:19.739Z,6.30
2023-05-03T20:43:49.283Z,5.40
2023-05-03T20:46:18.848Z,4.60
2023-05-03T20:48:48.504Z,5.10
2023-05-03T20:51:17.773Z,5.40
2023-05-03T20:53:47.482Z,5.00
2023-05-03T20:56:17.720Z,5.60
2023-05-03T20:58:47.199Z,4.90
2023-05-03T21:01:17.792Z,4.90
2023-05-03T21:03:47.299Z,6.40
2023-05-03T21:06:16.799Z,6.00
2023-05-03T21:08:47.092Z,6.00
2023-05-03T21:11:16.369Z,5.20
2023-05-03T21:13:48.438Z,7.00
2023-05-03T21:16:17.968Z,5.00
2023-05-03T21:18:47.243Z,5.10
2023-05-03T21:21:16.534Z,6.10
2023-05-03T21:23:48.198Z,5.10
2023-05-03T21:26:17.702Z,5.80
2023-05-03T21:28:46.904Z,5.40
2023-05-03T21:31:16.766Z,5.00
2023-05-03T21:33:46.109Z,6.30
2023-05-03T21:36:16.636Z,6.10
2023-05-03T21:38:46.149Z,5.80
2023-05-03T21:41:15.754Z,6.10
2023-05-03T21:43:45.162Z,6.60
2023-05-03T21:46:14.615Z,5.80
2023-05-03T21:48:44.169Z,5.50
2023-05-03T21:51:25.143Z,5.70
2023-05-03T21:53:54.650Z,7.20
2023-05-03T21:56:23.847Z,5.90
2023-05-03T21:58:53.250Z,5.20
2023-05-03T22:01:22.693Z,5.40
2023-05-03T22:03:52.780Z,4.90
2023-05-03T22:06:22.687Z,5.40
2023-05-03T22:08:51.985Z,5.30
2023-05-03T22:11:22.005Z,5.40
2023-05-03T22:14:06.843Z,6.00
2023-05-03T22:16:39.072Z,6.10
2023-05-03T22:19:08.996Z,6.70
2023-05-03T22:21:38.567Z,6.30
2023-05-03T22:24:08.793Z,7.10
2023-05-03T22:26:38.094Z,5.80
2023-05-03T22:29:07.814Z,6.60
2023-05-03T22:31:37.108Z,5.70
2023-05-03T22:34:06.313Z,5.30
2023-05-03T22:36:35.597Z,5.50
2023-05-03T22:39:05.922Z,4.50
2023-05-03T22:41:35.338Z,4.60
2023-05-03T22:44:04.579Z,5.70
2023-05-03T22:46:34.343Z,5.00
2023-05-03T22:49:04.074Z,5.40
2023-05-03T22:51:33.653Z,7.20
2023-05-03T22:54:02.849Z,5.60
2023-05-03T22:56:32.154Z,5.90
2023-05-03T22:59:01.667Z,5.80
2023-05-03T23:01:31.045Z,5.40
2023-05-03T23:04:00.613Z,6.20
2023-05-03T23:06:30.480Z,7.20
2023-05-03T23:09:01.236Z,7.20
2023-05-03T23:11:30.620Z,7.40
2023-05-03T23:14:00.029Z,7.20
2023-05-03T23:16:29.495Z,8.10
2023-05-03T23:18:58.831Z,6.60
2023-05-03T23:21:28.339Z,6.40
2023-05-03T23:23:57.843Z,7.00
2023-05-03T23:26:28.299Z,6.60
2023-05-03T23:28:57.992Z,7.10
2023-05-03T23:31:29.786Z,5.50
2023-05-03T23:34:00.642Z,6.20
2023-05-03T23:36:29.985Z,5.50
2023-05-03T23:38:59.389Z,6.40
2023-05-03T23:41:28.780Z,6.10
2023-05-03T23:43:58.201Z,6.90
2023-05-03T23:46:27.423Z,7.10
2023-05-03T23:48:56.999Z,7.50
2023-05-03T23:51:26.360Z,7.20
2023-05-03T23:53:55.604Z,6.80
2023-05-03T23:56:25.204Z,7.80
2023-05-03T23:58:54.708Z,6.10
